Time;durP1;ratioP1;P1;durP2;ratioP2;P2;SDS_P1;SDS_P2;PMS_P1;PMS_P2;Temp;Humidity;BMP_temperature;BMP_pressure;BME280_temperature;BME280_humidity;BME280_pressure;Samples;Min_cycle;Max_cycle;Signal;HPM_P1;HPM_P2
2022/11/10 00:00:54;;;;;;;9.70;2.33;;;9.50;99.90;;;;;;4925760;29;20425;-64
2022/11/10 00:03:21;;;;;;;10.85;2.35;;;9.20;99.90;;;;;;4926727;29;20100;-64
2022/11/10 00:05:47;;;;;;;10.32;2.38;;;9.50;99.90;;;;;;4925477;29;20047;-65
2022/11/10 00:08:12;;;;;;;7.82;2.33;;;9.20;99.90;;;;;;4927123;29;20059;-64
2022/11/10 00:10:57;;;;;;;8.55;2.05;;;9.30;99.90;;;;;;4925607;29;20056;-63
2022/11/10 00:13:29;;;;;;;16.20;2.70;;;9.40;99.90;;;;;;4925466;29;20108;-63
2022/11/10 00:18:42;;;;;;;12.52;3.40;;;9.40;99.90;;;;;;4925683;29;20059;-65
2022/11/10 00:21:09;;;;;;;12.75;2.50;;;9.40;99.90;;;;;;4926751;29;20056;-64
2022/11/10 00:23:35;;;;;;;13.77;2.85;;;10.10;99.90;;;;;;4925523;29;20574;-64
2022/11/10 00:26:01;;;;;;;12.98;2.92;;;9.70;99.90;;;;;;4925926;29;20108;-64
2022/11/10 00:28:30;;;;;;;11.23;2.85;;;9.70;99.90;;;;;;4925614;29;20091;-63
2022/11/10 00:30:56;;;;;;;12.60;3.00;;;9.30;99.90;;;;;;4925251;29;20182;-64
2022/11/10 00:33:22;;;;;;;12.93;3.33;;;9.40;99.90;;;;;;4926182;29;20135;-64
2022/11/10 00:35:48;;;;;;;13.63;2.58;;;9.70;99.90;;;;;;4924994;29;20055;-64
2022/11/10 00:38:13;;;;;;;9.25;2.40;;;9.40;99.90;;;;;;4926167;29;20063;-64
2022/11/10 00:40:39;;;;;;;11.07;3.20;;;9.70;99.90;;;;;;4925396;29;20067;-64
2022/11/10 00:43:05;;;;;;;15.60;3.65;;;9.50;99.90;;;;;;4925415;29;20404;-64
2022/11/10 00:45:30;;;;;;;15.98;3.15;;;9.30;99.90;;;;;;4925702;29;20044;-64
2022/11/10 00:47:56;;;;;;;15.90;4.03;;;9.60;99.90;;;;;;4908017;29;20044;-64
2022/11/10 00:50:22;;;;;;;11.95;3.70;;;9.40;99.90;;;;;;4926099;29;20036;-65
2022/11/10 00:52:47;;;;;;;15.52;3.25;;;9.50;99.90;;;;;;4924525;29;20050;-64
2022/11/10 00:55:13;;;;;;;15.70;4.47;;;9.70;99.90;;;;;;4926097;29;20131;-65
2022/11/10 00:57:38;;;;;;;15.30;3.35;;;9.60;99.90;;;;;;4924759;29;20140;-65
2022/11/10 01:00:05;;;;;;;14.52;3.53;;;9.30;99.90;;;;;;4908496;29;20507;-65
2022/11/10 01:02:31;;;;;;;11.27;3.17;;;9.70;99.90;;;;;;4925386;29;20048;-64
2022/11/10 01:04:56;;;;;;;13.43;4.07;;;9.40;99.90;;;;;;4924500;29;20168;-64
2022/11/10 01:07:22;;;;;;;15.40;3.22;;;9.40;99.90;;;;;;4925736;29;20047;-64
2022/11/10 01:09:47;;;;;;;11.63;2.92;;;9.50;99.90;;;;;;4906996;29;20063;-64
2022/11/10 01:12:13;;;;;;;11.38;2.78;;;9.30;99.90;;;;;;4908468;29;20048;-65
2022/11/10 01:14:39;;;;;;;13.90;3.45;;;9.40;99.90;;;;;;4924458;29;20052;-64
2022/11/10 01:17:05;;;;;;;14.55;3.25;;;9.50;99.90;;;;;;4925672;29;20127;-64
2022/11/10 01:19:30;;;;;;;14.38;3.50;;;9.50;99.90;;;;;;4924877;29;20060;-64
2022/11/10 01:21:56;;;;;;;8.52;2.75;;;9.60;99.90;;;;;;4924648;29;20079;-64
2022/11/10 01:24:22;;;;;;;13.05;3.25;;;9.40;99.90;;;;;;4925394;29;20517;-64
2022/11/10 01:26:48;;;;;;;13.05;3.03;;;9.60;99.90;;;;;;4924180;29;20040;-65
2022/11/10 01:29:14;;;;;;;13.48;3.40;;;9.40;99.90;;;;;;4925548;29;20047;-64
2022/11/10 01:31:40;;;;;;;12.32;3.42;;;9.60;99.90;;;;;;4923792;29;20100;-64
2022/11/10 01:34:05;;;;;;;11.07;3.80;;;9.30;99.90;;;;;;4924832;29;20135;-64
2022/11/10 01:36:31;;;;;;;16.60;3.50;;;9.40;99.90;;;;;;4924335;29;20079;-63
2022/11/10 01:38:57;;;;;;;15.90;3.55;;;9.50;99.90;;;;;;4924381;29;20064;-64
2022/11/10 01:41:22;;;;;;;11.93;3.40;;;9.40;99.90;;;;;;4924402;29;20103;-64
2022/11/10 01:43:48;;;;;;;13.25;3.42;;;9.40;99.90;;;;;;4923913;29;20071;-65
2022/11/10 01:46:14;;;;;;;12.00;3.58;;;9.50;99.90;;;;;;4925328;29;20410;-65
2022/11/10 01:48:48;;;;;;;13.75;3.83;;;9.80;99.90;;;;;;4922236;29;20044;-65
2022/11/10 01:51:25;;;;;;;14.25;3.85;;;9.20;99.90;;;;;;4924965;29;20044;-65
2022/11/10 01:53:57;;;;;;;14.32;3.75;;;9.30;99.90;;;;;;4924385;29;20127;-65
2022/11/10 01:56:27;;;;;;;14.68;3.72;;;9.50;99.90;;;;;;4923957;29;20062;-65
2022/11/10 01:58:59;;;;;;;11.85;3.25;;;9.50;99.90;;;;;;4924570;29;20056;-65
2022/11/10 02:01:25;;;;;;;12.13;3.63;;;9.20;99.90;;;;;;4923595;29;20060;-65
2022/11/10 02:04:00;;;;;;;12.65;3.80;;;9.20;99.90;;;;;;4924909;29;20076;-65
2022/11/10 02:06:31;;;;;;;17.17;5.68;;;9.40;99.90;;;;;;4923622;29;20047;-65
2022/11/10 02:08:58;;;;;;;15.27;4.03;;;9.30;99.90;;;;;;4923887;29;20044;-65
2022/11/10 02:11:24;;;;;;;14.45;3.92;;;9.30;99.90;;;;;;4923963;29;20052;-63
2022/11/10 02:13:50;;;;;;;16.25;4.38;;;9.50;99.90;;;;;;4923683;29;20051;-64
2022/11/10 02:16:16;;;;;;;11.48;3.78;;;9.10;99.90;;;;;;4924502;29;20075;-63
2022/11/10 02:18:42;;;;;;;13.07;4.10;;;9.20;99.90;;;;;;4923138;29;20060;-64
2022/11/10 02:21:08;;;;;;;19.15;4.90;;;9.30;99.90;;;;;;4924073;29;20052;-64
2022/11/10 02:23:34;;;;;;;21.92;5.07;;;9.40;99.90;;;;;;4922092;29;20051;-64
2022/11/10 02:26:05;;;;;;;13.20;4.43;;;9.40;99.90;;;;;;4923954;29;20044;-64
2022/11/10 02:28:35;;;;;;;21.10;4.47;;;9.20;99.90;;;;;;4924029;29;20143;-64
2022/11/10 02:31:03;;;;;;;16.58;4.78;;;9.30;99.90;;;;;;4923123;29;20048;-64
2022/11/10 02:33:29;;;;;;;15.15;5.32;;;9.50;99.90;;;;;;4923994;29;20052;-64
2022/11/10 02:35:55;;;;;;;15.30;4.35;;;9.50;99.90;;;;;;4922926;29;20072;-63
2022/11/10 02:38:21;;;;;;;15.40;4.57;;;9.40;99.90;;;;;;4923867;29;20107;-63
2022/11/10 02:40:48;;;;;;;15.82;4.80;;;9.10;99.90;;;;;;4923110;29;20146;-64
2022/11/10 02:43:15;;;;;;;22.52;5.97;;;9.30;99.90;;;;;;4922788;29;20046;-64
2022/11/10 02:45:44;;;;;;;15.40;4.75;;;9.20;99.90;;;;;;4923743;29;20048;-64
2022/11/10 02:48:11;;;;;;;16.40;4.63;;;9.50;99.90;;;;;;4922765;29;20079;-64
2022/11/10 02:50:37;;;;;;;15.25;4.63;;;9.20;99.90;;;;;;4924020;29;20040;-65
2022/11/10 02:53:03;;;;;;;15.25;4.22;;;9.20;99.90;;;;;;4922360;29;20135;-64
2022/11/10 02:55:28;;;;;;;16.60;5.13;;;9.10;99.90;;;;;;4923758;29;20799;-65
2022/11/10 02:57:54;;;;;;;19.80;5.32;;;9.30;99.90;;;;;;4906118;29;20044;-61
2022/11/10 03:00:20;;;;;;;20.08;5.60;;;9.20;99.90;;;;;;4923175;29;20063;-65
2022/11/10 03:02:45;;;;;;;15.70;5.45;;;9.50;99.90;;;;;;4923250;29;20066;-64
2022/11/10 03:05:11;;;;;;;13.77;4.65;;;9.30;99.90;;;;;;4922468;29;20105;-64
2022/11/10 03:07:37;;;;;;;14.77;4.13;;;9.50;99.90;;;;;;4923754;29;20044;-63
2022/11/10 03:10:04;;;;;;;17.90;4.50;;;9.10;99.90;;;;;;4922081;29;20044;-64
2022/11/10 03:12:30;;;;;;;16.48;4.93;;;9.50;99.90;;;;;;4923485;29;20491;-64
2022/11/10 03:14:55;;;;;;;15.93;4.22;;;9.10;99.90;;;;;;4922734;29;20048;-64
2022/11/10 03:17:21;;;;;;;16.98;4.95;;;9.10;99.90;;;;;;4923030;29;20052;-66
2022/11/10 03:19:48;;;;;;;17.33;4.50;;;9.40;99.90;;;;;;4922892;29;20036;-63
2022/11/10 03:22:14;;;;;;;15.40;4.80;;;9.10;99.90;;;;;;4922642;29;20088;-64
2022/11/10 03:24:39;;;;;;;16.25;4.43;;;9.20;99.90;;;;;;4923509;29;20056;-63
2022/11/10 03:27:05;;;;;;;20.58;5.03;;;9.20;99.90;;;;;;4921930;29;20040;-63
2022/11/10 03:29:31;;;;;;;19.02;4.68;;;9.40;99.90;;;;;;4923305;29;20058;-63
2022/11/10 03:31:57;;;;;;;11.50;4.45;;;9.30;99.90;;;;;;4921389;29;20425;-63
2022/11/10 03:34:23;;;;;;;18.42;4.60;;;9.50;99.90;;;;;;4922676;29;20051;-64
2022/11/10 03:36:49;;;;;;;18.65;4.82;;;9.50;99.90;;;;;;4922153;29;20477;-63
2022/11/10 03:39:15;;;;;;;18.40;4.72;;;9.20;99.90;;;;;;4922068;29;20048;-65
2022/11/10 03:41:40;;;;;;;17.23;5.25;;;9.20;99.90;;;;;;4905864;29;20524;-64
2022/11/10 03:44:06;;;;;;;13.95;4.60;;;9.20;99.90;;;;;;4921704;29;20107;-64
2022/11/10 03:46:32;;;;;;;17.15;4.75;;;9.10;99.90;;;;;;4922976;29;20055;-63
2022/11/10 03:48:57;;;;;;;15.63;4.63;;;9.10;99.90;;;;;;4919019;29;20104;-61
2022/11/10 03:51:23;;;;;;;16.17;4.80;;;9.80;99.90;;;;;;4913880;29;20048;-64
2022/11/10 03:53:49;;;;;;;20.52;6.03;;;9.30;99.90;;;;;;4914178;29;20164;-64
2022/11/10 03:56:15;;;;;;;16.50;4.63;;;9.40;99.90;;;;;;4903284;29;20504;-64
2022/11/10 03:58:40;;;;;;;14.32;4.72;;;9.40;99.90;;;;;;4916781;29;20044;-64
2022/11/10 04:01:06;;;;;;;19.33;5.03;;;9.50;99.90;;;;;;4921945;29;20104;-66
2022/11/10 04:03:32;;;;;;;16.52;4.50;;;9.20;99.90;;;;;;4923176;29;20048;-64
2022/11/10 04:09:00;;;;;;;20.90;5.10;;;9.20;99.90;;;;;;4895312;29;20045;-65
2022/11/10 04:16:57;;;;;;;16.33;4.57;;;9.50;99.90;;;;;;4922804;29;20433;-65
2022/11/10 04:19:22;;;;;;;15.55;4.38;;;9.60;99.90;;;;;;4922066;29;20044;-65
2022/11/10 04:21:48;;;;;;;15.75;4.43;;;9.30;99.90;;;;;;4921725;29;20063;-65
2022/11/10 04:24:14;;;;;;;20.90;4.68;;;9.60;99.90;;;;;;4909827;29;20489;-65
2022/11/10 04:26:41;;;;;;;18.77;4.70;;;9.40;99.90;;;;;;4902833;29;20029;-65
2022/11/10 04:29:09;;;;;;;21.27;5.60;;;9.40;99.90;;;;;;4903928;29;20112;-64
2022/11/10 04:31:39;;;;;;;18.25;5.05;;;9.70;99.90;;;;;;4913816;29;20087;-65
2022/11/10 04:34:07;;;;;;;19.08;4.72;;;9.30;99.90;;;;;;4922831;29;20041;-65
2022/11/10 04:36:34;;;;;;;21.38;5.03;;;9.70;99.90;;;;;;4921826;29;20115;-65
2022/11/10 04:39:00;;;;;;;18.52;4.50;;;9.30;99.90;;;;;;4921865;29;20056;-65
2022/11/10 04:41:29;;;;;;;15.82;4.32;;;9.30;99.90;;;;;;4905039;29;20448;-64
2022/11/10 04:43:55;;;;;;;17.08;4.43;;;9.50;99.90;;;;;;4922555;29;20051;-65
2022/11/10 04:46:25;;;;;;;17.63;4.35;;;9.50;99.90;;;;;;4926248;29;20100;-65
2022/11/10 04:48:51;;;;;;;21.10;5.05;;;9.50;99.90;;;;;;4924569;29;20036;-64
2022/11/10 04:51:18;;;;;;;22.05;5.20;;;9.70;99.90;;;;;;4925911;29;20054;-65
2022/11/10 04:53:44;;;;;;;18.08;5.75;;;9.90;99.90;;;;;;4925434;29;20115;-65
2022/11/10 04:56:15;;;;;;;18.35;5.25;;;9.60;99.90;;;;;;4907617;29;20056;-65
2022/11/10 04:58:41;;;;;;;18.73;4.95;;;9.70;99.90;;;;;;4925585;29;20056;-65
2022/11/10 05:01:13;;;;;;;21.55;5.20;;;9.50;99.90;;;;;;4924524;29;20056;-64
2022/11/10 05:03:39;;;;;;;23.15;4.75;;;9.50;99.90;;;;;;4926015;29;20801;-64
2022/11/10 05:06:05;;;;;;;16.90;4.18;;;9.80;99.90;;;;;;4907438;29;20099;-64
2022/11/10 05:08:31;;;;;;;25.77;5.40;;;9.70;99.90;;;;;;4908302;29;20059;-64
2022/11/10 05:10:56;;;;;;;15.35;4.65;;;9.50;99.90;;;;;;4924951;29;20103;-65
2022/11/10 05:13:22;;;;;;;17.63;6.50;;;9.90;99.90;;;;;;4924387;29;20088;-65
2022/11/10 05:15:48;;;;;;;19.95;5.68;;;9.90;99.90;;;;;;4924886;29;20043;-64
2022/11/10 05:18:14;;;;;;;21.65;5.80;;;10.00;99.90;;;;;;4924207;29;20068;-65
2022/11/10 05:20:39;;;;;;;23.15;6.97;;;9.70;99.90;;;;;;4908596;29;20197;-63
2022/11/10 05:25:49;;;;;;;17.67;4.72;;;9.80;99.90;;;;;;4924625;29;20076;-64
2022/11/10 05:28:15;;;;;;;22.90;4.70;;;9.80;99.90;;;;;;4907851;29;20060;-65
2022/11/10 05:30:42;;;;;;;25.20;5.10;;;9.50;99.90;;;;;;4924019;29;20786;-64
2022/11/10 05:33:08;;;;;;;19.13;4.75;;;9.90;99.90;;;;;;4924932;29;20052;-64
2022/11/10 05:35:34;;;;;;;18.02;4.55;;;10.10;99.90;;;;;;4923842;29;20091;-64
2022/11/10 05:38:00;;;;;;;17.88;4.32;;;9.90;99.90;;;;;;4925208;29;20084;-65
2022/11/10 05:40:27;;;;;;;14.07;3.88;;;9.80;99.90;;;;;;4924070;29;20505;-64
2022/11/10 05:42:52;;;;;;;16.20;4.65;;;9.50;99.90;;;;;;4924247;29;20063;-60
2022/11/10 05:45:24;;;;;;;21.20;4.63;;;9.60;99.90;;;;;;4924428;29;20047;-64
2022/11/10 05:47:50;;;;;;;17.70;4.17;;;9.70;99.90;;;;;;4924154;29;20060;-64
2022/11/10 05:50:17;;;;;;;18.95;4.40;;;9.90;99.90;;;;;;4924897;29;20140;-64
2022/11/10 05:52:47;;;;;;;19.10;4.70;;;9.50;99.90;;;;;;4923122;29;20056;-64
2022/11/10 05:55:14;;;;;;;24.67;4.50;;;9.70;99.90;;;;;;4924158;29;20085;-64
2022/11/10 05:57:44;;;;;;;25.15;4.22;;;9.80;99.90;;;;;;4916336;29;20060;-64
2022/11/10 06:00:11;;;;;;;18.67;4.03;;;9.80;99.90;;;;;;4905405;29;20064;-63
2022/11/10 06:02:37;;;;;;;36.83;5.45;;;9.60;99.90;;;;;;4905079;29;20096;-64
2022/11/10 06:05:04;;;;;;;20.75;4.00;;;10.00;99.90;;;;;;4904849;29;20064;-64
2022/11/10 06:07:29;;;;;;;19.90;4.22;;;10.00;99.90;;;;;;4889056;29;20049;-64
2022/11/10 06:09:55;;;;;;;19.38;4.43;;;9.90;99.90;;;;;;4901153;29;20053;-63
2022/11/10 06:12:23;;;;;;;22.70;4.90;;;10.00;99.90;;;;;;4902314;29;20425;-63
2022/11/10 06:14:50;;;;;;;18.83;4.32;;;9.70;99.90;;;;;;4884422;29;20060;-63
2022/11/10 06:17:16;;;;;;;18.63;4.68;;;9.60;99.90;;;;;;4902157;29;20075;-63
2022/11/10 06:19:42;;;;;;;17.85;4.30;;;10.10;99.90;;;;;;4901950;29;20517;-63
2022/11/10 06:22:08;;;;;;;20.77;4.03;;;10.00;99.90;;;;;;4900863;29;20127;-63
2022/11/10 06:24:34;;;;;;;17.92;4.10;;;9.80;99.90;;;;;;4902128;29;20060;-63
2022/11/10 06:27:00;;;;;;;22.27;4.88;;;9.60;99.90;;;;;;4883758;29;20048;-66
2022/11/10 06:29:25;;;;;;;22.70;4.18;;;10.10;99.90;;;;;;4902740;29;20052;-63
2022/11/10 06:31:51;;;;;;;18.15;3.83;;;9.60;99.90;;;;;;4919657;29;20099;-63
2022/11/10 06:34:17;;;;;;;23.45;4.43;;;10.00;99.90;;;;;;4903070;29;20056;-63
2022/11/10 06:36:43;;;;;;;21.10;4.82;;;10.40;99.90;;;;;;4920459;29;20100;-63
2022/11/10 06:39:09;;;;;;;27.08;5.25;;;9.90;99.90;;;;;;4919516;29;20084;-63
2022/11/10 06:41:34;;;;;;;18.20;4.63;;;9.60;99.90;;;;;;4920554;29;20048;-63
2022/11/10 06:44:00;;;;;;;19.40;4.35;;;10.00;99.90;;;;;;4918910;29;20047;-63
2022/11/10 06:46:26;;;;;;;19.88;4.18;;;9.90;99.90;;;;;;4903164;29;20048;-64
2022/11/10 06:48:51;;;;;;;21.35;3.40;;;9.60;99.90;;;;;;4902167;29;20107;-63
2022/11/10 06:51:17;;;;;;;18.73;3.80;;;9.70;99.90;;;;;;4903994;29;20044;-63
2022/11/10 06:53:43;;;;;;;19.23;4.07;;;9.70;99.90;;;;;;4920199;29;20044;-63
2022/11/10 06:56:09;;;;;;;21.38;5.25;;;9.70;99.90;;;;;;4902885;29;20044;-63
2022/11/10 06:58:34;;;;;;;16.75;3.72;;;10.00;99.90;;;;;;4905621;29;20052;-63
2022/11/10 07:01:00;;;;;;;17.85;3.80;;;9.70;99.90;;;;;;4883744;29;20101;-64
2022/11/10 07:03:26;;;;;;;18.77;3.97;;;10.10;99.90;;;;;;4901744;29;20048;-63
2022/11/10 07:05:52;;;;;;;22.25;4.63;;;9.80;99.90;;;;;;4900486;29;20044;-63
2022/11/10 07:08:18;;;;;;;16.15;3.60;;;9.60;99.90;;;;;;4901333;29;20057;-63
2022/11/10 07:10:50;;;;;;;17.45;3.20;;;10.00;99.90;;;;;;4900233;29;20044;-63
2022/11/10 07:13:15;;;;;;;25.73;4.28;;;9.90;99.90;;;;;;4900326;29;20505;-63
2022/11/10 07:15:41;;;;;;;21.70;4.00;;;9.90;99.90;;;;;;4901324;29;20047;-63
2022/11/10 07:18:07;;;;;;;23.00;4.15;;;10.20;99.90;;;;;;4900339;29;20103;-63
2022/11/10 07:20:34;;;;;;;16.77;3.78;;;10.20;99.90;;;;;;4901326;29;20056;-63
2022/11/10 07:23:04;;;;;;;20.73;4.53;;;9.80;99.90;;;;;;4915561;29;20048;-63
2022/11/10 07:25:34;;;;;;;23.45;4.40;;;10.20;99.90;;;;;;4902980;29;20048;-63
2022/11/10 07:28:02;;;;;;;17.20;3.80;;;9.70;99.90;;;;;;4919135;29;20048;-63
2022/11/10 07:30:29;;;;;;;22.30;5.15;;;9.90;99.90;;;;;;4901798;29;20100;-64
2022/11/10 07:33:01;;;;;;;24.05;4.68;;;9.80;99.90;;;;;;4919325;29;20443;-64
2022/11/10 07:35:27;;;;;;;24.27;4.25;;;10.00;99.90;;;;;;4918675;29;20311;-64
2022/11/10 07:37:57;;;;;;;24.17;4.32;;;9.90;99.90;;;;;;4919939;29;20048;-63
2022/11/10 07:40:23;;;;;;;16.42;3.95;;;9.70;99.90;;;;;;4918683;29;20074;-64
2022/11/10 07:42:48;;;;;;;24.63;4.53;;;9.60;99.90;;;;;;4919354;29;20135;-63
2022/11/10 07:45:14;;;;;;;17.67;4.22;;;9.70;99.90;;;;;;4919291;29;20104;-63
2022/11/10 07:47:40;;;;;;;20.70;5.10;;;10.00;99.90;;;;;;4919050;29;20139;-63
2022/11/10 07:50:06;;;;;;;17.17;3.80;;;9.80;99.90;;;;;;4902623;29;20052;-63
2022/11/10 07:52:32;;;;;;;24.13;4.60;;;9.70;99.90;;;;;;4918510;29;20048;-64
2022/11/10 07:54:58;;;;;;;20.50;4.60;;;10.00;99.90;;;;;;4919764;29;20040;-64
2022/11/10 07:57:23;;;;;;;25.55;6.28;;;10.00;99.90;;;;;;4895212;29;20044;-64
2022/11/10 07:59:49;;;;;;;23.35;4.95;;;10.00;99.90;;;;;;4900238;29;20044;-64
2022/11/10 08:02:14;;;;;;;21.38;5.15;;;10.10;99.90;;;;;;4899817;29;20044;-63
2022/11/10 08:04:40;;;;;;;23.95;4.88;;;10.20;99.90;;;;;;4899421;29;20502;-65
2022/11/10 08:07:06;;;;;;;22.73;4.03;;;9.90;99.90;;;;;;4900060;29;20564;-64
2022/11/10 08:09:32;;;;;;;24.45;4.95;;;10.20;99.90;;;;;;4898832;29;20860;-64
2022/11/10 08:11:57;;;;;;;22.63;3.90;;;10.30;99.90;;;;;;4900028;29;20040;-64
2022/11/10 08:14:23;;;;;;;17.10;4.10;;;10.30;99.90;;;;;;4882298;29;20045;-64
2022/11/10 08:16:49;;;;;;;22.70;4.57;;;10.10;99.90;;;;;;4883136;29;20056;-65
2022/11/10 08:19:15;;;;;;;17.90;5.05;;;10.40;99.90;;;;;;4900995;29;20075;-63
2022/11/10 08:21:40;;;;;;;17.48;4.88;;;10.50;99.90;;;;;;4917706;29;20083;-63
2022/11/10 08:24:06;;;;;;;24.40;4.68;;;10.30;99.90;;;;;;4922295;29;20581;-63
2022/11/10 08:26:32;;;;;;;20.17;5.80;;;10.60;99.90;;;;;;4921506;29;20112;-61
2022/11/10 08:28:58;;;;;;;26.77;4.70;;;10.30;99.90;;;;;;4922718;29;20483;-63
2022/11/10 08:31:23;;;;;;;19.85;4.45;;;10.40;99.90;;;;;;4921509;29;20063;-63
2022/11/10 08:33:49;;;;;;;26.45;4.75;;;10.70;99.90;;;;;;4922111;29;20055;-64
2022/11/10 08:36:15;;;;;;;21.77;3.92;;;10.80;99.90;;;;;;4921041;29;20059;-64
2022/11/10 08:38:41;;;;;;;21.35;4.10;;;10.90;99.90;;;;;;4921536;29;20060;-65
2022/11/10 08:41:06;;;;;;;18.48;4.22;;;10.90;99.90;;;;;;4922023;29;20110;-64
2022/11/10 08:43:32;;;;;;;21.02;4.43;;;10.60;99.90;;;;;;4921459;29;20048;-65
2022/11/10 08:45:57;;;;;;;22.10;3.80;;;10.50;99.90;;;;;;4905217;29;20100;-65
2022/11/10 08:48:23;;;;;;;18.73;3.92;;;10.60;99.90;;;;;;4920637;29;20056;-63
2022/11/10 08:50:50;;;;;;;20.25;4.75;;;10.60;99.90;;;;;;4905616;29;20059;-63
2022/11/10 08:53:22;;;;;;;16.10;4.13;;;10.90;99.90;;;;;;4921275;29;20542;-63
2022/11/10 08:55:48;;;;;;;21.15;4.15;;;10.80;99.90;;;;;;4905038;29;20056;-64
2022/11/10 08:58:20;;;;;;;20.08;4.07;;;10.80;99.90;;;;;;4909621;29;20052;-65
2022/11/10 09:00:46;;;;;;;17.60;4.32;;;11.20;99.90;;;;;;4918215;29;20045;-63
2022/11/10 09:03:20;;;;;;;18.45;4.07;;;10.80;99.90;;;;;;4920367;29;20040;-62
2022/11/10 09:05:47;;;;;;;21.63;4.43;;;10.90;99.90;;;;;;4916442;29;20060;-63
2022/11/10 09:08:14;;;;;;;20.60;4.75;;;11.20;99.90;;;;;;4904981;29;20083;-64
2022/11/10 09:10:45;;;;;;;22.95;4.32;;;11.30;99.90;;;;;;4920998;29;20044;-64
2022/11/10 09:13:12;;;;;;;17.00;4.55;;;11.20;99.90;;;;;;4920882;29;20048;-64
2022/11/10 09:15:38;;;;;;;23.90;4.50;;;11.30;99.90;;;;;;4921528;29;20048;-63
2022/11/10 09:18:06;;;;;;;22.02;4.18;;;11.40;99.90;;;;;;4920848;29;20088;-64
2022/11/10 09:20:34;;;;;;;24.23;4.50;;;11.30;99.90;;;;;;4921971;29;20076;-63
2022/11/10 09:23:14;;;;;;;24.02;4.40;;;11.50;99.90;;;;;;4920454;29;20048;-64
2022/11/10 09:25:41;;;;;;;16.17;4.55;;;11.30;99.90;;;;;;4921428;29;20060;-63
2022/11/10 09:28:12;;;;;;;19.00;5.35;;;11.60;99.90;;;;;;4920503;29;20103;-63
2022/11/10 09:30:38;;;;;;;41.47;6.50;;;11.20;99.90;;;;;;4920459;29;20461;-63
2022/11/10 09:33:03;;;;;;;23.77;4.10;;;11.30;99.90;;;;;;4921108;29;20052;-62
2022/11/10 09:35:29;;;;;;;23.33;4.80;;;11.70;99.90;;;;;;4920250;29;20054;-63
2022/11/10 09:37:55;;;;;;;21.02;4.80;;;11.40;99.90;;;;;;4921403;29;20074;-63
2022/11/10 09:40:41;;;;;;;25.67;5.07;;;11.40;99.90;;;;;;4919318;29;20689;-63
2022/11/10 09:43:13;;;;;;;21.85;4.75;;;11.70;99.90;;;;;;4902798;29;20279;-62
2022/11/10 09:45:40;;;;;;;;;;;11.70;99.90;;;;;;4920725;29;20059;-62
2022/11/10 09:48:23;;;;;;;23.48;5.45;;;11.80;99.90;;;;;;4919871;29;19931;-61
2022/11/10 09:51:03;;;;;;;22.88;4.97;;;11.70;99.90;;;;;;4921510;29;20052;-62
2022/11/10 09:53:53;;;;;;;18.35;5.63;;;11.50;99.90;;;;;;4920512;29;20048;-63
2022/11/10 09:56:31;;;;;;;21.75;5.75;;;11.40;99.90;;;;;;4920242;29;20104;-63
2022/11/10 09:58:58;;;;;;;24.83;5.65;;;11.80;99.90;;;;;;4903378;29;20090;-63
2022/11/10 10:01:35;;;;;;;29.20;6.55;;;11.70;99.90;;;;;;4900917;29;20048;-61
2022/11/10 10:04:19;;;;;;;23.30;7.68;;;11.80;99.90;;;;;;4884443;29;20059;-61
2022/11/10 10:07:10;;;;;;;21.75;6.50;;;11.60;99.90;;;;;;4901478;29;20052;-62
2022/11/10 10:09:50;;;;;;;23.10;6.57;;;11.60;99.90;;;;;;4900241;29;20544;-62
2022/11/10 10:12:29;;;;;;;24.65;7.35;;;11.80;99.90;;;;;;4884869;29;20100;-62
2022/11/10 10:15:19;;;;;;;30.13;8.43;;;12.10;99.90;;;;;;4903253;29;20045;-62
2022/11/10 10:17:53;;;;;;;19.83;5.95;;;11.80;99.90;;;;;;4904091;29;20079;-62
2022/11/10 10:20:44;;;;;;;19.73;6.13;;;12.00;99.90;;;;;;4905137;29;20083;-62
2022/11/10 10:23:31;;;;;;;19.73;6.15;;;12.00;99.90;;;;;;4903881;29;20100;-63
2022/11/10 10:25:57;;;;;;;20.45;6.00;;;11.90;99.90;;;;;;4872919;29;20148;-62
2022/11/10 10:28:43;;;;;;;19.92;5.30;;;12.00;99.90;;;;;;4905229;29;20056;-62
2022/11/10 10:31:29;;;;;;;23.48;5.70;;;11.80;99.90;;;;;;4871420;29;20051;-62
2022/11/10 10:33:54;;;;;;;21.25;5.70;;;11.90;99.90;;;;;;4903894;29;20402;-62
2022/11/10 10:36:25;;;;;;;19.27;5.78;;;12.10;99.90;;;;;;4904219;29;20056;-62
2022/11/10 10:38:59;;;;;;;28.42;5.45;;;11.80;99.90;;;;;;4903947;29;20064;-62
2022/11/10 10:41:27;;;;;;;19.65;5.97;;;12.20;99.90;;;;;;4904170;29;20055;-63
2022/11/10 10:43:56;;;;;;;20.33;5.57;;;12.20;99.90;;;;;;4886729;29;20108;-62
2022/11/10 10:46:27;;;;;;;21.05;5.20;;;12.20;99.90;;;;;;4905154;29;20044;-62
2022/11/10 10:49:17;;;;;;;17.73;5.38;;;12.00;99.90;;;;;;4903314;29;20123;-61
2022/11/10 10:51:44;;;;;;;23.52;4.95;;;12.10;99.90;;;;;;4903872;29;20056;-62
2022/11/10 10:54:32;;;;;;;20.85;4.95;;;12.40;99.90;;;;;;4904640;29;20048;-62
2022/11/10 10:57:19;;;;;;;17.60;5.10;;;12.50;99.90;;;;;;4905082;29;20045;-62
2022/11/10 10:59:45;;;;;;;19.08;4.88;;;12.40;99.90;;;;;;4923433;29;20071;-62
2022/11/10 11:02:23;;;;;;;17.08;4.35;;;12.30;99.90;;;;;;4923166;29;20096;-62
2022/11/10 11:05:07;;;;;;;17.58;4.22;;;12.60;99.90;;;;;;4922651;29;20627;-62
2022/11/10 11:07:33;;;;;;;15.98;4.10;;;12.40;99.90;;;;;;4922935;29;20044;-62
2022/11/10 11:09:59;;;;;;;17.67;4.30;;;12.70;99.90;;;;;;4922118;29;20040;-62
2022/11/10 11:12:28;;;;;;;20.02;4.88;;;12.90;99.90;;;;;;4923211;29;20112;-62
2022/11/10 11:15:28;;;;;;;22.30;4.47;;;12.50;99.90;;;;;;4922912;29;20052;-62
2022/11/10 11:18:12;;;;;;;23.92;4.35;;;12.80;99.90;;;;;;4922130;29;20052;-61
2022/11/10 11:20:50;;;;;;;21.92;4.18;;;12.80;99.90;;;;;;4922567;29;20092;-62
2022/11/10 11:23:44;;;;;;;20.02;4.20;;;12.80;99.90;;;;;;4921629;29;20059;-60
2022/11/10 11:26:45;;;;;;;24.17;6.57;;;12.70;99.90;;;;;;4921727;29;20062;-62
2022/11/10 11:29:30;;;;;;;22.58;5.28;;;13.00;99.90;;;;;;4910102;29;20048;-62
2022/11/10 11:31:59;;;;;;;19.30;4.65;;;13.00;99.90;;;;;;4922018;29;20359;-64
2022/11/10 11:34:50;;;;;;;21.75;5.63;;;12.80;99.90;;;;;;4921920;29;20052;-62
2022/11/10 11:37:44;;;;;;;17.15;4.50;;;13.00;99.90;;;;;;4905728;29;20048;-62
2022/11/10 11:40:18;;;;;;;25.15;4.65;;;13.00;99.90;;;;;;4922223;29;20669;-60
2022/11/10 11:43:03;;;;;;;20.92;4.40;;;13.10;99.90;;;;;;4922262;29;20044;-62
2022/11/10 11:45:47;;;;;;;18.45;4.50;;;13.10;99.90;;;;;;4922769;29;20089;-62
2022/11/10 11:48:28;;;;;;;17.85;4.45;;;13.00;99.90;;;;;;4920732;29;20040;-61
2022/11/10 11:51:04;;;;;;;20.67;4.97;;;12.90;99.90;;;;;;4921400;29;20377;-62
2022/11/10 11:53:55;;;;;;;25.17;5.63;;;13.00;99.90;;;;;;4920807;29;20051;-62
2022/11/10 11:56:29;;;;;;;21.38;4.28;;;13.20;99.90;;;;;;4879299;29;20416;-62
2022/11/10 11:59:33;;;;;;;22.55;4.85;;;13.10;99.90;;;;;;4920964;29;20047;-63
2022/11/10 12:02:32;;;;;;;12.57;2.92;;;13.10;99.90;;;;;;4917792;29;20129;-62
2022/11/10 12:05:42;;;;;;;15.13;3.60;;;12.90;99.90;;;;;;4919928;29;20127;-63
2022/11/10 12:08:25;;;;;;;18.08;4.15;;;13.10;99.90;;;;;;4921682;29;20048;-62
2022/11/10 12:11:20;;;;;;;22.15;4.70;;;12.90;99.90;;;;;;4902187;29;20047;-61
2022/11/10 12:13:46;;;;;;;20.73;4.38;;;13.20;99.90;;;;;;4920689;29;20054;-63
2022/11/10 12:16:26;;;;;;;17.95;4.60;;;13.10;99.90;;;;;;4922876;29;20112;-63
2022/11/10 12:19:07;;;;;;;22.88;5.30;;;13.20;99.90;;;;;;4904462;29;20071;-62
2022/11/10 12:21:52;;;;;;;22.15;4.53;;;12.90;99.90;;;;;;4921768;29;20051;-62
2022/11/10 12:24:43;;;;;;;20.45;5.53;;;12.90;99.90;;;;;;4922402;29;20055;-63
2022/11/10 12:27:25;;;;;;;18.40;3.63;;;12.90;99.90;;;;;;4921308;29;20761;-63
2022/11/10 12:29:58;;;;;;;19.42;3.95;;;12.70;99.90;;;;;;4922347;29;20055;-62
2022/11/10 12:32:36;;;;;;;21.88;4.78;;;13.10;99.90;;;;;;4922331;29;20044;-63
2022/11/10 12:35:13;;;;;;;20.88;4.32;;;12.90;99.90;;;;;;4904474;29;20143;-62
2022/11/10 12:37:45;;;;;;;23.35;4.32;;;13.00;99.90;;;;;;4922542;29;20052;-62
2022/11/10 12:40:16;;;;;;;21.33;4.25;;;12.80;99.90;;;;;;4921445;29;20626;-62
2022/11/10 12:42:58;;;;;;;21.40;4.53;;;13.00;99.90;;;;;;4921378;29;20043;-62
2022/11/10 12:45:42;;;;;;;17.85;3.75;;;12.90;99.90;;;;;;4922171;29;20071;-62
2022/11/10 12:48:11;;;;;;;17.00;4.03;;;13.00;99.90;;;;;;4920717;29;20076;-63
2022/11/10 12:51:12;;;;;;;18.73;3.85;;;12.80;99.90;;;;;;4922422;29;20076;-62
2022/11/10 12:53:40;;;;;;;20.83;3.58;;;12.90;99.90;;;;;;4904493;29;20094;-62
2022/11/10 12:56:39;;;;;;;20.65;3.65;;;13.00;99.90;;;;;;4904359;29;20556;-62
2022/11/10 12:59:20;;;;;;;18.00;4.00;;;12.70;99.90;;;;;;4902100;29;20060;-61
2022/11/10 13:01:50;;;;;;;27.30;4.95;;;12.90;99.90;;;;;;4902374;29;20108;-62
2022/11/10 13:04:18;;;;;;;16.35;3.72;;;12.90;99.90;;;;;;4902988;29;20063;-62
2022/11/10 13:06:57;;;;;;;13.32;2.78;;;12.90;99.90;;;;;;4905895;29;20052;-62
2022/11/10 13:09:29;;;;;;;17.80;4.10;;;12.80;99.90;;;;;;4905362;29;20057;-62
2022/11/10 13:12:09;;;;;;;19.75;4.32;;;13.00;99.90;;;;;;4906238;29;20085;-63